sensor_id;sensor_type;location;lat;lon;timestamp;P1;durP1;ratioP1;P2;durP2;ratioP2
19816;SDS011;68323;49.394;8.434;2024-01-30T00:00:37;25.90;;;15.17;;
19816;SDS011;68323;49.394;8.434;2024-01-30T00:03:02;24.47;;;14.70;;
19816;SDS011;68323;49.394;8.434;2024-01-30T00:05:28;28.03;;;15.40;;
19816;SDS011;68323;49.394;8.434;2024-01-30T00:07:54;23.40;;;14.30;;
19816;SDS011;68323;49.394;8.434;2024-01-30T00:10:19;22.53;;;14.87;;
19816;SDS011;68323;49.394;8.434;2024-01-30T00:12:45;21.57;;;13.90;;
19816;SDS011;68323;49.394;8.434;2024-01-30T00:15:11;23.27;;;13.80;;
19816;SDS011;68323;49.394;8.434;2024-01-30T00:17:36;20.43;;;13.60;;
19816;SDS011;68323;49.394;8.434;2024-01-30T00:20:02;20.93;;;13.20;;
19816;SDS011;68323;49.394;8.434;2024-01-30T00:22:30;22.10;;;13.63;;
19816;SDS011;68323;49.394;8.434;2024-01-30T00:24:56;19.43;;;12.50;;
19816;SDS011;68323;49.394;8.434;2024-01-30T00:27:22;21.40;;;13.27;;
19816;SDS011;68323;49.394;8.434;2024-01-30T00:29:48;19.33;;;12.87;;
19816;SDS011;68323;49.394;8.434;2024-01-30T00:32:14;21.67;;;13.80;;
19816;SDS011;68323;49.394;8.434;2024-01-30T00:34:39;20.60;;;13.50;;
19816;SDS011;68323;49.394;8.434;2024-01-30T00:37:06;22.20;;;13.67;;
19816;SDS011;68323;49.394;8.434;2024-01-30T00:39:32;20.77;;;13.13;;
19816;SDS011;68323;49.394;8.434;2024-01-30T00:41:57;21.47;;;12.97;;
19816;SDS011;68323;49.394;8.434;2024-01-30T00:44:23;20.80;;;13.10;;
19816;SDS011;68323;49.394;8.434;2024-01-30T00:46:48;18.47;;;12.37;;
19816;SDS011;68323;49.394;8.434;2024-01-30T00:49:14;19.30;;;11.83;;
19816;SDS011;68323;49.394;8.434;2024-01-30T00:51:40;23.47;;;12.30;;
19816;SDS011;68323;49.394;8.434;2024-01-30T00:54:05;17.10;;;11.83;;
19816;SDS011;68323;49.394;8.434;2024-01-30T00:56:31;18.60;;;12.60;;
19816;SDS011;68323;49.394;8.434;2024-01-30T00:58:57;17.83;;;12.00;;
19816;SDS011;68323;49.394;8.434;2024-01-30T01:01:22;17.30;;;11.70;;
19816;SDS011;68323;49.394;8.434;2024-01-30T01:03:48;17.33;;;11.20;;
19816;SDS011;68323;49.394;8.434;2024-01-30T01:06:14;19.23;;;11.70;;
19816;SDS011;68323;49.394;8.434;2024-01-30T01:08:39;17.13;;;11.20;;
19816;SDS011;68323;49.394;8.434;2024-01-30T01:11:05;19.83;;;11.60;;
19816;SDS011;68323;49.394;8.434;2024-01-30T01:13:30;19.37;;;11.47;;
19816;SDS011;68323;49.394;8.434;2024-01-30T01:15:56;16.53;;;10.93;;
19816;SDS011;68323;49.394;8.434;2024-01-30T01:18:21;18.67;;;11.47;;
19816;SDS011;68323;49.394;8.434;2024-01-30T01:20:47;17.03;;;11.10;;
19816;SDS011;68323;49.394;8.434;2024-01-30T01:23:12;25.07;;;13.33;;
19816;SDS011;68323;49.394;8.434;2024-01-30T01:25:38;19.67;;;11.67;;
19816;SDS011;68323;49.394;8.434;2024-01-30T01:28:04;17.03;;;10.70;;
19816;SDS011;68323;49.394;8.434;2024-01-30T01:30:29;20.40;;;11.63;;
19816;SDS011;68323;49.394;8.434;2024-01-30T01:32:55;21.67;;;11.77;;
19816;SDS011;68323;49.394;8.434;2024-01-30T01:35:22;20.87;;;11.10;;
19816;SDS011;68323;49.394;8.434;2024-01-30T01:37:52;17.30;;;11.17;;
19816;SDS011;68323;49.394;8.434;2024-01-30T01:40:25;18.77;;;11.20;;
19816;SDS011;68323;49.394;8.434;2024-01-30T01:42:52;18.60;;;11.67;;
19816;SDS011;68323;49.394;8.434;2024-01-30T01:45:19;20.50;;;11.73;;
19816;SDS011;68323;49.394;8.434;2024-01-30T01:47:45;17.60;;;11.73;;
19816;SDS011;68323;49.394;8.434;2024-01-30T01:50:15;19.43;;;11.40;;
19816;SDS011;68323;49.394;8.434;2024-01-30T01:52:44;19.43;;;11.93;;
19816;SDS011;68323;49.394;8.434;2024-01-30T01:55:11;21.53;;;11.90;;
19816;SDS011;68323;49.394;8.434;2024-01-30T01:57:38;18.80;;;11.83;;
19816;SDS011;68323;49.394;8.434;2024-01-30T02:00:04;19.27;;;11.83;;
19816;SDS011;68323;49.394;8.434;2024-01-30T02:02:30;19.77;;;12.30;;
19816;SDS011;68323;49.394;8.434;2024-01-30T02:04:59;18.07;;;11.40;;
19816;SDS011;68323;49.394;8.434;2024-01-30T02:07:25;17.83;;;11.63;;
19816;SDS011;68323;49.394;8.434;2024-01-30T02:09:52;18.60;;;11.50;;
19816;SDS011;68323;49.394;8.434;2024-01-30T02:12:18;18.33;;;12.33;;
19816;SDS011;68323;49.394;8.434;2024-01-30T02:14:47;18.47;;;12.00;;
19816;SDS011;68323;49.394;8.434;2024-01-30T02:17:13;18.33;;;11.30;;
19816;SDS011;68323;49.394;8.434;2024-01-30T02:19:39;21.43;;;12.53;;
19816;SDS011;68323;49.394;8.434;2024-01-30T02:22:05;18.97;;;12.37;;
19816;SDS011;68323;49.394;8.434;2024-01-30T02:24:31;22.67;;;12.77;;
19816;SDS011;68323;49.394;8.434;2024-01-30T02:26:56;20.07;;;11.97;;
19816;SDS011;68323;49.394;8.434;2024-01-30T02:29:22;20.90;;;12.23;;
19816;SDS011;68323;49.394;8.434;2024-01-30T02:31:47;21.57;;;12.03;;
19816;SDS011;68323;49.394;8.434;2024-01-30T02:34:13;18.10;;;12.33;;
19816;SDS011;68323;49.394;8.434;2024-01-30T02:36:42;18.73;;;12.33;;
19816;SDS011;68323;49.394;8.434;2024-01-30T02:39:08;21.97;;;13.27;;
19816;SDS011;68323;49.394;8.434;2024-01-30T02:41:34;21.70;;;13.90;;
19816;SDS011;68323;49.394;8.434;2024-01-30T02:44:00;20.60;;;13.50;;
19816;SDS011;68323;49.394;8.434;2024-01-30T02:46:26;20.47;;;12.93;;
19816;SDS011;68323;49.394;8.434;2024-01-30T02:48:51;25.93;;;13.90;;
19816;SDS011;68323;49.394;8.434;2024-01-30T02:51:17;18.90;;;12.90;;
19816;SDS011;68323;49.394;8.434;2024-01-30T02:53:42;21.40;;;13.27;;
19816;SDS011;68323;49.394;8.434;2024-01-30T02:56:08;20.83;;;13.43;;
19816;SDS011;68323;49.394;8.434;2024-01-30T02:58:35;26.67;;;13.27;;
19816;SDS011;68323;49.394;8.434;2024-01-30T03:01:01;19.10;;;12.70;;
19816;SDS011;68323;49.394;8.434;2024-01-30T03:03:27;19.87;;;12.87;;
19816;SDS011;68323;49.394;8.434;2024-01-30T03:05:53;24.13;;;13.57;;
19816;SDS011;68323;49.394;8.434;2024-01-30T03:08:19;23.10;;;13.60;;
19816;SDS011;68323;49.394;8.434;2024-01-30T03:10:45;22.23;;;12.77;;
19816;SDS011;68323;49.394;8.434;2024-01-30T03:13:10;18.53;;;12.60;;
19816;SDS011;68323;49.394;8.434;2024-01-30T03:15:36;20.70;;;12.60;;
19816;SDS011;68323;49.394;8.434;2024-01-30T03:18:02;20.97;;;13.10;;
19816;SDS011;68323;49.394;8.434;2024-01-30T03:20:28;19.83;;;12.87;;
19816;SDS011;68323;49.394;8.434;2024-01-30T03:22:54;21.20;;;13.07;;
19816;SDS011;68323;49.394;8.434;2024-01-30T03:25:20;21.67;;;13.10;;
19816;SDS011;68323;49.394;8.434;2024-01-30T03:27:46;22.13;;;13.20;;
19816;SDS011;68323;49.394;8.434;2024-01-30T03:30:12;18.43;;;12.90;;
19816;SDS011;68323;49.394;8.434;2024-01-30T03:32:37;21.80;;;13.30;;
19816;SDS011;68323;49.394;8.434;2024-01-30T03:35:03;20.37;;;12.93;;
19816;SDS011;68323;49.394;8.434;2024-01-30T03:37:29;21.50;;;13.77;;
19816;SDS011;68323;49.394;8.434;2024-01-30T03:39:54;27.40;;;13.33;;
19816;SDS011;68323;49.394;8.434;2024-01-30T03:42:20;20.43;;;12.90;;
19816;SDS011;68323;49.394;8.434;2024-01-30T03:44:46;20.27;;;12.67;;
19816;SDS011;68323;49.394;8.434;2024-01-30T03:47:11;18.70;;;12.43;;
19816;SDS011;68323;49.394;8.434;2024-01-30T03:49:37;19.20;;;12.47;;
19816;SDS011;68323;49.394;8.434;2024-01-30T03:52:02;19.70;;;11.63;;
19816;SDS011;68323;49.394;8.434;2024-01-30T03:54:28;17.77;;;11.83;;
19816;SDS011;68323;49.394;8.434;2024-01-30T03:56:54;18.43;;;12.20;;
19816;SDS011;68323;49.394;8.434;2024-01-30T03:59:19;23.93;;;12.90;;
19816;SDS011;68323;49.394;8.434;2024-01-30T04:01:49;19.63;;;11.73;;
19816;SDS011;68323;49.394;8.434;2024-01-30T04:04:16;17.83;;;11.67;;
19816;SDS011;68323;49.394;8.434;2024-01-30T04:06:42;16.90;;;11.70;;
19816;SDS011;68323;49.394;8.434;2024-01-30T04:09:08;22.27;;;12.07;;
19816;SDS011;68323;49.394;8.434;2024-01-30T04:11:33;20.97;;;12.23;;
19816;SDS011;68323;49.394;8.434;2024-01-30T04:13:59;20.60;;;12.50;;
19816;SDS011;68323;49.394;8.434;2024-01-30T04:16:24;22.40;;;12.67;;
19816;SDS011;68323;49.394;8.434;2024-01-30T04:18:51;19.13;;;11.27;;
19816;SDS011;68323;49.394;8.434;2024-01-30T04:21:17;16.53;;;11.53;;
19816;SDS011;68323;49.394;8.434;2024-01-30T04:23:42;18.53;;;11.80;;
19816;SDS011;68323;49.394;8.434;2024-01-30T04:26:08;21.10;;;12.27;;
19816;SDS011;68323;49.394;8.434;2024-01-30T04:28:33;19.27;;;12.00;;
19816;SDS011;68323;49.394;8.434;2024-01-30T04:30:59;21.10;;;12.00;;
19816;SDS011;68323;49.394;8.434;2024-01-30T04:33:24;18.90;;;12.17;;
19816;SDS011;68323;49.394;8.434;2024-01-30T04:35:50;20.63;;;12.50;;
19816;SDS011;68323;49.394;8.434;2024-01-30T04:38:16;21.43;;;12.43;;
19816;SDS011;68323;49.394;8.434;2024-01-30T04:40:42;21.50;;;13.23;;
19816;SDS011;68323;49.394;8.434;2024-01-30T04:43:08;22.13;;;13.73;;
19816;SDS011;68323;49.394;8.434;2024-01-30T04:45:33;21.90;;;12.90;;
19816;SDS011;68323;49.394;8.434;2024-01-30T04:47:59;21.93;;;13.17;;
19816;SDS011;68323;49.394;8.434;2024-01-30T04:50:25;19.37;;;12.70;;
19816;SDS011;68323;49.394;8.434;2024-01-30T04:52:51;23.23;;;13.77;;
19816;SDS011;68323;49.394;8.434;2024-01-30T04:55:17;22.20;;;13.37;;
19816;SDS011;68323;49.394;8.434;2024-01-30T04:57:43;27.43;;;14.27;;
19816;SDS011;68323;49.394;8.434;2024-01-30T05:00:08;26.73;;;14.17;;
19816;SDS011;68323;49.394;8.434;2024-01-30T05:02:34;25.73;;;14.27;;
19816;SDS011;68323;49.394;8.434;2024-01-30T05:05:00;22.23;;;13.50;;
19816;SDS011;68323;49.394;8.434;2024-01-30T05:07:26;23.77;;;14.90;;
19816;SDS011;68323;49.394;8.434;2024-01-30T05:09:51;22.20;;;13.87;;
19816;SDS011;68323;49.394;8.434;2024-01-30T05:12:17;25.90;;;14.40;;
19816;SDS011;68323;49.394;8.434;2024-01-30T05:14:43;20.93;;;13.97;;
19816;SDS011;68323;49.394;8.434;2024-01-30T05:17:08;24.57;;;14.97;;
19816;SDS011;68323;49.394;8.434;2024-01-30T05:19:35;24.30;;;13.97;;
19816;SDS011;68323;49.394;8.434;2024-01-30T05:22:01;27.23;;;16.00;;
19816;SDS011;68323;49.394;8.434;2024-01-30T05:24:27;24.50;;;15.53;;
19816;SDS011;68323;49.394;8.434;2024-01-30T05:26:53;24.00;;;14.97;;
19816;SDS011;68323;49.394;8.434;2024-01-30T05:29:18;23.73;;;14.87;;
19816;SDS011;68323;49.394;8.434;2024-01-30T05:31:44;24.10;;;14.70;;
19816;SDS011;68323;49.394;8.434;2024-01-30T05:34:09;25.10;;;15.97;;
19816;SDS011;68323;49.394;8.434;2024-01-30T05:36:35;25.70;;;15.37;;
19816;SDS011;68323;49.394;8.434;2024-01-30T05:39:01;23.00;;;15.60;;
19816;SDS011;68323;49.394;8.434;2024-01-30T05:41:26;23.53;;;15.33;;
19816;SDS011;68323;49.394;8.434;2024-01-30T05:43:52;27.43;;;15.43;;
19816;SDS011;68323;49.394;8.434;2024-01-30T05:46:18;24.37;;;15.77;;
19816;SDS011;68323;49.394;8.434;2024-01-30T05:48:43;26.83;;;15.23;;
19816;SDS011;68323;49.394;8.434;2024-01-30T05:51:09;30.63;;;15.70;;
19816;SDS011;68323;49.394;8.434;2024-01-30T05:53:34;24.63;;;15.80;;
19816;SDS011;68323;49.394;8.434;2024-01-30T05:56:03;28.53;;;16.13;;
19816;SDS011;68323;49.394;8.434;2024-01-30T05:58:29;23.60;;;15.47;;
19816;SDS011;68323;49.394;8.434;2024-01-30T06:00:56;24.57;;;15.63;;
19816;SDS011;68323;49.394;8.434;2024-01-30T06:03:22;23.27;;;16.17;;
19816;SDS011;68323;49.394;8.434;2024-01-30T06:05:47;26.13;;;15.90;;
19816;SDS011;68323;49.394;8.434;2024-01-30T06:08:13;24.87;;;15.60;;
19816;SDS011;68323;49.394;8.434;2024-01-30T06:10:39;25.70;;;16.00;;
19816;SDS011;68323;49.394;8.434;2024-01-30T06:13:05;27.17;;;16.20;;
19816;SDS011;68323;49.394;8.434;2024-01-30T06:15:30;24.47;;;15.80;;
19816;SDS011;68323;49.394;8.434;2024-01-30T06:17:57;27.30;;;15.73;;
19816;SDS011;68323;49.394;8.434;2024-01-30T06:20:23;26.70;;;15.83;;
19816;SDS011;68323;49.394;8.434;2024-01-30T06:22:49;26.67;;;15.47;;
19816;SDS011;68323;49.394;8.434;2024-01-30T06:25:14;24.10;;;16.27;;
19816;SDS011;68323;49.394;8.434;2024-01-30T06:27:41;25.20;;;15.27;;
19816;SDS011;68323;49.394;8.434;2024-01-30T06:30:07;26.93;;;15.07;;
19816;SDS011;68323;49.394;8.434;2024-01-30T06:32:33;28.73;;;15.50;;
19816;SDS011;68323;49.394;8.434;2024-01-30T06:35:02;26.97;;;16.80;;
19816;SDS011;68323;49.394;8.434;2024-01-30T06:37:28;24.60;;;16.40;;
19816;SDS011;68323;49.394;8.434;2024-01-30T06:39:54;25.07;;;15.83;;
19816;SDS011;68323;49.394;8.434;2024-01-30T06:42:19;25.87;;;15.53;;
19816;SDS011;68323;49.394;8.434;2024-01-30T06:44:45;28.43;;;15.70;;
19816;SDS011;68323;49.394;8.434;2024-01-30T06:47:10;21.83;;;14.20;;
19816;SDS011;68323;49.394;8.434;2024-01-30T06:49:36;23.03;;;14.93;;
19816;SDS011;68323;49.394;8.434;2024-01-30T06:52:04;25.53;;;14.53;;
19816;SDS011;68323;49.394;8.434;2024-01-30T06:54:30;22.20;;;14.17;;
19816;SDS011;68323;49.394;8.434;2024-01-30T06:56:56;22.27;;;14.67;;
19816;SDS011;68323;49.394;8.434;2024-01-30T06:59:21;24.20;;;15.70;;
19816;SDS011;68323;49.394;8.434;2024-01-30T07:01:47;25.40;;;15.83;;
19816;SDS011;68323;49.394;8.434;2024-01-30T07:04:13;23.30;;;15.87;;
19816;SDS011;68323;49.394;8.434;2024-01-30T07:06:38;29.63;;;16.23;;
19816;SDS011;68323;49.394;8.434;2024-01-30T07:09:04;23.03;;;14.70;;
19816;SDS011;68323;49.394;8.434;2024-01-30T07:11:30;22.37;;;14.63;;
19816;SDS011;68323;49.394;8.434;2024-01-30T07:13:56;25.27;;;15.20;;
19816;SDS011;68323;49.394;8.434;2024-01-30T07:16:21;24.30;;;14.07;;
19816;SDS011;68323;49.394;8.434;2024-01-30T07:18:47;25.67;;;15.53;;
19816;SDS011;68323;49.394;8.434;2024-01-30T07:21:13;25.00;;;15.87;;
19816;SDS011;68323;49.394;8.434;2024-01-30T07:23:54;23.33;;;13.97;;
19816;SDS011;68323;49.394;8.434;2024-01-30T07:26:20;23.83;;;14.43;;
19816;SDS011;68323;49.394;8.434;2024-01-30T07:28:46;21.13;;;13.60;;
19816;SDS011;68323;49.394;8.434;2024-01-30T07:31:12;22.30;;;14.00;;
19816;SDS011;68323;49.394;8.434;2024-01-30T07:33:37;21.33;;;14.43;;
19816;SDS011;68323;49.394;8.434;2024-01-30T07:36:03;23.27;;;14.37;;
19816;SDS011;68323;49.394;8.434;2024-01-30T07:38:31;23.87;;;15.00;;
19816;SDS011;68323;49.394;8.434;2024-01-30T07:40:57;23.37;;;14.87;;
19816;SDS011;68323;49.394;8.434;2024-01-30T07:43:22;24.40;;;13.90;;
19816;SDS011;68323;49.394;8.434;2024-01-30T07:45:48;23.63;;;14.63;;
19816;SDS011;68323;49.394;8.434;2024-01-30T07:48:13;22.33;;;14.73;;
19816;SDS011;68323;49.394;8.434;2024-01-30T07:50:39;25.50;;;14.77;;
19816;SDS011;68323;49.394;8.434;2024-01-30T07:53:11;24.43;;;13.93;;
19816;SDS011;68323;49.394;8.434;2024-01-30T07:55:36;23.10;;;14.10;;
19816;SDS011;68323;49.394;8.434;2024-01-30T07:58:02;22.47;;;13.70;;
19816;SDS011;68323;49.394;8.434;2024-01-30T08:00:29;22.17;;;13.70;;
19816;SDS011;68323;49.394;8.434;2024-01-30T08:02:55;25.33;;;14.17;;
19816;SDS011;68323;49.394;8.434;2024-01-30T08:05:21;25.70;;;13.37;;
19816;SDS011;68323;49.394;8.434;2024-01-30T08:07:48;23.67;;;13.67;;
19816;SDS011;68323;49.394;8.434;2024-01-30T08:10:14;22.27;;;13.20;;
19816;SDS011;68323;49.394;8.434;2024-01-30T08:12:41;20.47;;;13.20;;
19816;SDS011;68323;49.394;8.434;2024-01-30T08:15:06;22.77;;;13.90;;
19816;SDS011;68323;49.394;8.434;2024-01-30T08:17:32;20.17;;;13.33;;
19816;SDS011;68323;49.394;8.434;2024-01-30T08:19:59;22.27;;;13.80;;
19816;SDS011;68323;49.394;8.434;2024-01-30T08:22:24;23.03;;;13.67;;
19816;SDS011;68323;49.394;8.434;2024-01-30T08:24:50;23.30;;;13.53;;
19816;SDS011;68323;49.394;8.434;2024-01-30T08:27:16;21.20;;;12.43;;
19816;SDS011;68323;49.394;8.434;2024-01-30T08:29:42;21.53;;;12.60;;
19816;SDS011;68323;49.394;8.434;2024-01-30T08:32:08;18.77;;;12.17;;
19816;SDS011;68323;49.394;8.434;2024-01-30T08:34:33;20.73;;;13.00;;
19816;SDS011;68323;49.394;8.434;2024-01-30T08:36:59;22.40;;;14.10;;
19816;SDS011;68323;49.394;8.434;2024-01-30T08:39:25;23.40;;;13.13;;
19816;SDS011;68323;49.394;8.434;2024-01-30T08:41:51;20.93;;;13.23;;
19816;SDS011;68323;49.394;8.434;2024-01-30T08:44:16;23.03;;;13.70;;
19816;SDS011;68323;49.394;8.434;2024-01-30T08:46:42;24.10;;;13.43;;
19816;SDS011;68323;49.394;8.434;2024-01-30T08:49:09;18.67;;;12.73;;
19816;SDS011;68323;49.394;8.434;2024-01-30T08:51:38;21.63;;;13.27;;
19816;SDS011;68323;49.394;8.434;2024-01-30T08:54:04;20.40;;;12.87;;
19816;SDS011;68323;49.394;8.434;2024-01-30T08:56:30;22.90;;;13.93;;
19816;SDS011;68323;49.394;8.434;2024-01-30T08:58:55;20.63;;;13.53;;
19816;SDS011;68323;49.394;8.434;2024-01-30T09:01:21;24.77;;;14.17;;
19816;SDS011;68323;49.394;8.434;2024-01-30T09:03:47;22.97;;;13.97;;
19816;SDS011;68323;49.394;8.434;2024-01-30T09:06:13;19.60;;;13.60;;
19816;SDS011;68323;49.394;8.434;2024-01-30T09:08:39;21.80;;;14.47;;
19816;SDS011;68323;49.394;8.434;2024-01-30T09:11:08;20.80;;;14.23;;
19816;SDS011;68323;49.394;8.434;2024-01-30T09:13:38;26.03;;;14.57;;
19816;SDS011;68323;49.394;8.434;2024-01-30T09:16:07;22.63;;;15.10;;
19816;SDS011;68323;49.394;8.434;2024-01-30T09:18:32;22.20;;;13.93;;
19816;SDS011;68323;49.394;8.434;2024-01-30T09:20:58;22.87;;;14.00;;
19816;SDS011;68323;49.394;8.434;2024-01-30T09:23:24;24.53;;;15.03;;
19816;SDS011;68323;49.394;8.434;2024-01-30T09:25:52;20.33;;;13.50;;
19816;SDS011;68323;49.394;8.434;2024-01-30T09:28:18;23.47;;;14.13;;
19816;SDS011;68323;49.394;8.434;2024-01-30T09:30:44;21.03;;;13.70;;
19816;SDS011;68323;49.394;8.434;2024-01-30T09:33:09;20.07;;;13.83;;
19816;SDS011;68323;49.394;8.434;2024-01-30T09:35:37;21.13;;;13.27;;
19816;SDS011;68323;49.394;8.434;2024-01-30T09:38:03;23.90;;;14.83;;
19816;SDS011;68323;49.394;8.434;2024-01-30T09:40:29;22.07;;;13.90;;
19816;SDS011;68323;49.394;8.434;2024-01-30T09:42:54;24.37;;;14.57;;
19816;SDS011;68323;49.394;8.434;2024-01-30T09:45:23;25.70;;;13.90;;
19816;SDS011;68323;49.394;8.434;2024-01-30T09:47:50;24.23;;;14.07;;
19816;SDS011;68323;49.394;8.434;2024-01-30T09:50:16;21.50;;;14.67;;
19816;SDS011;68323;49.394;8.434;2024-01-30T09:52:42;23.70;;;15.40;;
19816;SDS011;68323;49.394;8.434;2024-01-30T09:55:09;23.27;;;14.73;;
19816;SDS011;68323;49.394;8.434;2024-01-30T09:57:35;25.00;;;16.00;;
19816;SDS011;68323;49.394;8.434;2024-01-30T10:00:02;30.03;;;18.73;;
19816;SDS011;68323;49.394;8.434;2024-01-30T10:02:29;25.83;;;17.20;;
19816;SDS011;68323;49.394;8.434;2024-01-30T10:04:56;26.37;;;16.03;;
19816;SDS011;68323;49.394;8.434;2024-01-30T10:07:22;30.03;;;17.80;;
19816;SDS011;68323;49.394;8.434;2024-01-30T10:09:48;30.73;;;18.80;;
19816;SDS011;68323;49.394;8.434;2024-01-30T10:12:14;32.87;;;19.30;;
19816;SDS011;68323;49.394;8.434;2024-01-30T10:14:41;30.83;;;19.03;;
19816;SDS011;68323;49.394;8.434;2024-01-30T10:17:10;22.50;;;16.07;;
19816;SDS011;68323;49.394;8.434;2024-01-30T10:19:40;22.83;;;15.57;;
19816;SDS011;68323;49.394;8.434;2024-01-30T10:22:06;24.50;;;16.10;;
19816;SDS011;68323;49.394;8.434;2024-01-30T10:24:33;22.37;;;15.47;;
19816;SDS011;68323;49.394;8.434;2024-01-30T10:26:59;27.10;;;15.57;;
19816;SDS011;68323;49.394;8.434;2024-01-30T10:29:24;22.43;;;15.50;;
19816;SDS011;68323;49.394;8.434;2024-01-30T10:34:28;20.98;;;15.25;;
19816;SDS011;68323;49.394;8.434;2024-01-30T10:39:08;23.83;;;15.60;;
19816;SDS011;68323;49.394;8.434;2024-01-30T10:41:36;22.03;;;15.07;;
19816;SDS011;68323;49.394;8.434;2024-01-30T10:44:10;23.07;;;14.93;;
19816;SDS011;68323;49.394;8.434;2024-01-30T10:46:40;21.37;;;14.80;;
19816;SDS011;68323;49.394;8.434;2024-01-30T10:49:10;22.23;;;13.97;;
19816;SDS011;68323;49.394;8.434;2024-01-30T10:51:38;22.23;;;14.97;;
19816;SDS011;68323;49.394;8.434;2024-01-30T10:54:05;21.30;;;14.37;;
19816;SDS011;68323;49.394;8.434;2024-01-30T10:56:32;23.50;;;14.10;;
19816;SDS011;68323;49.394;8.434;2024-01-30T10:58:58;24.90;;;14.70;;
19816;SDS011;68323;49.394;8.434;2024-01-30T11:01:24;22.43;;;13.97;;
19816;SDS011;68323;49.394;8.434;2024-01-30T11:03:52;20.83;;;13.97;;
19816;SDS011;68323;49.394;8.434;2024-01-30T11:06:22;21.23;;;14.97;;
19816;SDS011;68323;49.394;8.434;2024-01-30T11:08:59;20.57;;;14.13;;
19816;SDS011;68323;49.394;8.434;2024-01-30T11:11:29;22.20;;;13.87;;
19816;SDS011;68323;49.394;8.434;2024-01-30T11:13:54;25.07;;;14.43;;
19816;SDS011;68323;49.394;8.434;2024-01-30T11:16:20;23.57;;;13.57;;
19816;SDS011;68323;49.394;8.434;2024-01-30T11:18:49;19.87;;;12.97;;
19816;SDS011;68323;49.394;8.434;2024-01-30T11:21:18;21.37;;;13.23;;
19816;SDS011;68323;49.394;8.434;2024-01-30T11:23:44;21.20;;;12.60;;
19816;SDS011;68323;49.394;8.434;2024-01-30T11:26:10;17.43;;;12.17;;
19816;SDS011;68323;49.394;8.434;2024-01-30T11:28:36;21.23;;;13.43;;
19816;SDS011;68323;49.394;8.434;2024-01-30T11:31:06;17.17;;;12.27;;
19816;SDS011;68323;49.394;8.434;2024-01-30T11:33:32;19.40;;;12.97;;
19816;SDS011;68323;49.394;8.434;2024-01-30T11:35:58;19.27;;;12.27;;
19816;SDS011;68323;49.394;8.434;2024-01-30T11:38:25;19.03;;;13.10;;
19816;SDS011;68323;49.394;8.434;2024-01-30T11:40:55;19.53;;;12.63;;
19816;SDS011;68323;49.394;8.434;2024-01-30T11:43:21;20.80;;;12.80;;
19816;SDS011;68323;49.394;8.434;2024-01-30T11:45:47;18.97;;;12.87;;
19816;SDS011;68323;49.394;8.434;2024-01-30T11:48:13;19.47;;;12.83;;
19816;SDS011;68323;49.394;8.434;2024-01-30T11:50:39;17.07;;;12.43;;
19816;SDS011;68323;49.394;8.434;2024-01-30T11:53:05;20.73;;;12.90;;
19816;SDS011;68323;49.394;8.434;2024-01-30T11:55:32;20.73;;;12.60;;
19816;SDS011;68323;49.394;8.434;2024-01-30T11:57:58;19.10;;;12.50;;
19816;SDS011;68323;49.394;8.434;2024-01-30T12:00:23;19.23;;;11.87;;
19816;SDS011;68323;49.394;8.434;2024-01-30T12:02:53;19.03;;;12.57;;
19816;SDS011;68323;49.394;8.434;2024-01-30T12:05:22;18.03;;;11.50;;
19816;SDS011;68323;49.394;8.434;2024-01-30T12:07:49;15.90;;;11.10;;
19816;SDS011;68323;49.394;8.434;2024-01-30T12:10:15;18.77;;;11.47;;
19816;SDS011;68323;49.394;8.434;2024-01-30T12:12:41;17.10;;;10.87;;
19816;SDS011;68323;49.394;8.434;2024-01-30T12:15:09;14.97;;;11.00;;
19816;SDS011;68323;49.394;8.434;2024-01-30T12:17:35;16.13;;;11.10;;
19816;SDS011;68323;49.394;8.434;2024-01-30T12:22:37;17.73;;;10.90;;
19816;SDS011;68323;49.394;8.434;2024-01-30T12:25:10;15.37;;;10.30;;
19816;SDS011;68323;49.394;8.434;2024-01-30T12:27:41;15.83;;;10.40;;
19816;SDS011;68323;49.394;8.434;2024-01-30T12:30:08;136.23;;;14.17;;
19816;SDS011;68323;49.394;8.434;2024-01-30T12:32:35;17.87;;;10.70;;
19816;SDS011;68323;49.394;8.434;2024-01-30T12:35:10;16.47;;;10.73;;
19816;SDS011;68323;49.394;8.434;2024-01-30T12:37:37;13.73;;;9.87;;
19816;SDS011;68323;49.394;8.434;2024-01-30T12:40:03;16.23;;;10.30;;
19816;SDS011;68323;49.394;8.434;2024-01-30T12:42:29;15.80;;;10.70;;
19816;SDS011;68323;49.394;8.434;2024-01-30T12:44:56;18.47;;;9.70;;
19816;SDS011;68323;49.394;8.434;2024-01-30T12:47:25;16.07;;;10.00;;
19816;SDS011;68323;49.394;8.434;2024-01-30T12:49:50;15.43;;;10.03;;
19816;SDS011;68323;49.394;8.434;2024-01-30T12:52:20;16.03;;;10.47;;
19816;SDS011;68323;49.394;8.434;2024-01-30T12:54:47;15.70;;;9.43;;
19816;SDS011;68323;49.394;8.434;2024-01-30T12:57:16;14.93;;;9.73;;
19816;SDS011;68323;49.394;8.434;2024-01-30T12:59:43;13.03;;;9.60;;
19816;SDS011;68323;49.394;8.434;2024-01-30T13:02:09;16.97;;;9.47;;
19816;SDS011;68323;49.394;8.434;2024-01-30T13:04:35;14.60;;;9.10;;
19816;SDS011;68323;49.394;8.434;2024-01-30T13:07:02;14.57;;;9.30;;
19816;SDS011;68323;49.394;8.434;2024-01-30T13:09:29;15.17;;;9.00;;
19816;SDS011;68323;49.394;8.434;2024-01-30T13:11:57;14.53;;;8.83;;
19816;SDS011;68323;49.394;8.434;2024-01-30T13:14:25;16.23;;;8.97;;
19816;SDS011;68323;49.394;8.434;2024-01-30T13:16:52;16.17;;;8.43;;
19816;SDS011;68323;49.394;8.434;2024-01-30T13:19:18;15.47;;;8.57;;
19816;SDS011;68323;49.394;8.434;2024-01-30T13:21:45;12.63;;;8.40;;
19816;SDS011;68323;49.394;8.434;2024-01-30T13:24:12;12.73;;;7.87;;
19816;SDS011;68323;49.394;8.434;2024-01-30T13:26:39;12.53;;;8.10;;
19816;SDS011;68323;49.394;8.434;2024-01-30T13:29:05;10.30;;;7.47;;
19816;SDS011;68323;49.394;8.434;2024-01-30T13:31:30;15.37;;;8.10;;
19816;SDS011;68323;49.394;8.434;2024-01-30T13:33:56;12.10;;;7.63;;
19816;SDS011;68323;49.394;8.434;2024-01-30T13:36:22;13.47;;;7.90;;
19816;SDS011;68323;49.394;8.434;2024-01-30T13:38:48;10.77;;;7.87;;
19816;SDS011;68323;49.394;8.434;2024-01-30T13:41:15;12.27;;;8.33;;
19816;SDS011;68323;49.394;8.434;2024-01-30T13:43:41;12.17;;;7.93;;
19816;SDS011;68323;49.394;8.434;2024-01-30T13:46:08;13.50;;;8.40;;
19816;SDS011;68323;49.394;8.434;2024-01-30T13:48:33;16.87;;;8.23;;
19816;SDS011;68323;49.394;8.434;2024-01-30T13:50:59;16.40;;;8.90;;
19816;SDS011;68323;49.394;8.434;2024-01-30T13:53:24;16.90;;;9.30;;
19816;SDS011;68323;49.394;8.434;2024-01-30T13:55:50;11.03;;;8.53;;
19816;SDS011;68323;49.394;8.434;2024-01-30T13:58:15;16.33;;;9.33;;
19816;SDS011;68323;49.394;8.434;2024-01-30T14:00:41;15.27;;;9.20;;
19816;SDS011;68323;49.394;8.434;2024-01-30T14:03:06;19.07;;;9.83;;
19816;SDS011;68323;49.394;8.434;2024-01-30T14:05:32;22.70;;;11.77;;
19816;SDS011;68323;49.394;8.434;2024-01-30T14:07:58;28.27;;;13.17;;
19816;SDS011;68323;49.394;8.434;2024-01-30T14:10:24;19.67;;;11.30;;
19816;SDS011;68323;49.394;8.434;2024-01-30T14:12:50;19.73;;;9.93;;
19816;SDS011;68323;49.394;8.434;2024-01-30T14:15:16;15.50;;;9.30;;
19816;SDS011;68323;49.394;8.434;2024-01-30T14:17:44;16.53;;;9.33;;
19816;SDS011;68323;49.394;8.434;2024-01-30T14:20:13;12.90;;;8.43;;
19816;SDS011;68323;49.394;8.434;2024-01-30T14:22:39;16.13;;;10.60;;
19816;SDS011;68323;49.394;8.434;2024-01-30T14:25:05;13.73;;;9.37;;